createdAt,value
2022-11-29T00:01:39.742Z,4.67
2022-11-29T00:04:08.111Z,4.67
2022-11-29T00:06:36.393Z,4.68
2022-11-29T00:09:11.873Z,4.69
2022-11-29T00:12:00.974Z,4.67
2022-11-29T00:14:29.416Z,4.67
2022-11-29T00:17:02.400Z,4.67
2022-11-29T00:19:32.772Z,4.67
2022-11-29T00:22:02.479Z,4.66
2022-11-29T00:24:32.789Z,4.62
2022-11-29T00:27:01.493Z,4.57
2022-11-29T00:29:30.756Z,4.54
2022-11-29T00:31:59.525Z,4.54
2022-11-29T00:34:27.882Z,4.49
2022-11-29T00:36:55.813Z,4.45
2022-11-29T00:39:24.349Z,4.46
2022-11-29T00:41:52.808Z,4.47
2022-11-29T00:44:20.888Z,4.51
2022-11-29T00:46:49.446Z,4.55
2022-11-29T00:49:18.106Z,4.57
2022-11-29T00:51:46.688Z,4.58
2022-11-29T00:54:14.619Z,4.59
2022-11-29T00:56:42.960Z,4.61
2022-11-29T00:59:10.945Z,4.64
2022-11-29T01:01:39.302Z,4.62
2022-11-29T01:04:07.362Z,4.60
2022-11-29T01:06:35.547Z,4.59
2022-11-29T01:09:04.075Z,4.59
2022-11-29T01:11:32.317Z,4.57
2022-11-29T01:14:03.070Z,4.53
2022-11-29T01:16:31.608Z,4.52
2022-11-29T01:19:00.747Z,4.55
2022-11-29T01:21:29.285Z,4.54
2022-11-29T01:23:57.502Z,4.50
2022-11-29T01:26:28.063Z,4.46
2022-11-29T01:28:58.688Z,4.40
2022-11-29T01:31:30.942Z,4.35
2022-11-29T01:34:02.038Z,4.31
2022-11-29T01:36:30.267Z,4.29
2022-11-29T01:39:02.360Z,4.28
2022-11-29T01:41:33.181Z,4.32
2022-11-29T01:44:28.491Z,4.32
2022-11-29T01:46:57.482Z,4.31
2022-11-29T01:49:42.834Z,4.31
2022-11-29T01:52:23.838Z,4.29
2022-11-29T01:54:56.764Z,4.26
2022-11-29T01:57:25.421Z,4.26
2022-11-29T02:00:20.774Z,4.25
2022-11-29T02:03:12.834Z,4.25
2022-11-29T02:05:44.991Z,4.22
2022-11-29T02:08:15.843Z,4.20
2022-11-29T02:10:50.567Z,4.19
2022-11-29T02:13:33.730Z,4.13
2022-11-29T02:16:14.110Z,4.09
2022-11-29T02:18:57.536Z,4.08
2022-11-29T02:21:45.732Z,4.04
2022-11-29T02:24:13.545Z,4.05
2022-11-29T02:26:59.167Z,4.05
2022-11-29T02:30:05.215Z,4.01
2022-11-29T02:32:48.509Z,3.98
2022-11-29T02:35:54.863Z,3.97
2022-11-29T02:38:59.025Z,3.94
2022-11-29T02:41:41.935Z,3.94
2022-11-29T02:44:18.850Z,3.86
2022-11-29T02:47:22.776Z,3.79
2022-11-29T02:49:53.914Z,3.75
2022-11-29T02:52:55.521Z,3.75
2022-11-29T02:55:43.460Z,3.79
2022-11-29T02:58:17.687Z,3.76
2022-11-29T03:01:18.822Z,3.73
2022-11-29T03:04:34.177Z,3.74
2022-11-29T03:07:24.319Z,3.78
2022-11-29T03:10:13.919Z,3.79
2022-11-29T03:12:47.484Z,3.82
2022-11-29T03:15:34.395Z,3.86
2022-11-29T03:18:20.566Z,3.89
2022-11-29T03:21:18.425Z,3.91
2022-11-29T03:23:57.749Z,3.94
2022-11-29T03:26:42.666Z,3.92
2022-11-29T03:29:39.904Z,3.91
2022-11-29T03:32:28.897Z,3.88
2022-11-29T03:35:13.128Z,3.90
2022-11-29T03:38:08.472Z,3.93
2022-11-29T03:40:50.203Z,3.94
2022-11-29T03:43:26.646Z,3.89
2022-11-29T03:46:04.678Z,3.90
2022-11-29T03:48:58.693Z,3.92
2022-11-29T03:51:41.443Z,3.92
2022-11-29T03:54:19.850Z,3.91
2022-11-29T03:56:48.103Z,3.95
2022-11-29T03:59:30.898Z,3.99
2022-11-29T04:02:20.649Z,3.99
2022-11-29T04:05:07.491Z,4.01
2022-11-29T04:08:06.225Z,4.05
2022-11-29T04:11:02.465Z,4.08
2022-11-29T04:13:39.368Z,4.10
2022-11-29T04:16:10.400Z,4.09
2022-11-29T04:18:53.288Z,4.03
2022-11-29T04:21:42.282Z,4.01
2022-11-29T04:24:19.441Z,3.96
2022-11-29T04:27:24.654Z,3.90
2022-11-29T04:29:55.818Z,3.79
2022-11-29T04:32:42.392Z,3.70
2022-11-29T04:35:38.147Z,3.62
2022-11-29T04:38:12.065Z,3.53
2022-11-29T04:40:43.140Z,3.49
2022-11-29T04:43:14.303Z,3.46
2022-11-29T04:45:53.439Z,3.44
2022-11-29T04:48:38.935Z,3.45
2022-11-29T04:51:28.145Z,3.45
2022-11-29T04:54:16.202Z,3.45
2022-11-29T04:56:52.027Z,3.47
2022-11-29T04:59:38.733Z,3.50
2022-11-29T05:02:37.636Z,3.54
2022-11-29T05:05:37.017Z,3.58
2022-11-29T05:08:35.918Z,3.60
2022-11-29T05:11:13.404Z,3.58
2022-11-29T05:14:08.826Z,3.56
2022-11-29T05:17:18.826Z,3.52
2022-11-29T05:19:55.499Z,3.43
2022-11-29T05:22:48.993Z,3.37
2022-11-29T05:25:40.402Z,3.27
2022-11-29T05:28:25.818Z,3.18
2022-11-29T05:30:56.931Z,3.11
2022-11-29T05:33:51.493Z,3.08
2022-11-29T05:36:38.443Z,3.07
2022-11-29T05:39:31.264Z,3.32
2022-11-29T05:42:23.689Z,3.39
2022-11-29T05:45:18.737Z,3.35
2022-11-29T05:47:50.744Z,3.37
2022-11-29T05:50:58.625Z,3.37
2022-11-29T05:53:48.663Z,3.41
2022-11-29T05:56:27.927Z,3.45
2022-11-29T05:59:03.652Z,3.46
2022-11-29T06:01:37.936Z,3.46
2022-11-29T06:04:15.248Z,3.45
2022-11-29T06:06:55.735Z,3.45
2022-11-29T06:09:28.838Z,3.44
2022-11-29T06:12:05.350Z,3.44
2022-11-29T06:14:43.003Z,3.43
2022-11-29T06:17:49.009Z,3.44
2022-11-29T06:20:43.898Z,3.41
2022-11-29T06:23:24.537Z,3.36
2022-11-29T06:26:03.638Z,3.31
2022-11-29T06:28:49.024Z,3.23
2022-11-29T06:31:34.659Z,3.19
2022-11-29T06:34:14.642Z,3.18
2022-11-29T06:36:50.893Z,3.17
2022-11-29T06:39:19.364Z,3.15
2022-11-29T06:41:49.286Z,3.13
2022-11-29T06:44:17.751Z,3.16
2022-11-29T06:46:48.010Z,3.17
2022-11-29T06:49:39.255Z,3.17
2022-11-29T06:52:37.797Z,3.23
2022-11-29T06:55:20.132Z,3.26
2022-11-29T06:58:15.351Z,3.26
2022-11-29T07:01:02.065Z,3.21
2022-11-29T07:03:48.275Z,3.22
2022-11-29T07:06:24.930Z,3.27
2022-11-29T07:08:58.858Z,3.35
2022-11-29T07:11:27.965Z,3.36
2022-11-29T07:13:56.271Z,3.37
2022-11-29T07:16:54.473Z,3.41
2022-11-29T07:19:40.141Z,3.37
2022-11-29T07:22:28.026Z,3.32
2022-11-29T07:25:20.847Z,3.36
2022-11-29T07:28:07.001Z,3.41
2022-11-29T07:30:52.524Z,3.45
2022-11-29T07:33:46.683Z,3.46
2022-11-29T07:36:43.018Z,3.48
2022-11-29T07:39:22.512Z,3.49
2022-11-29T07:42:16.180Z,3.49
2022-11-29T07:45:06.217Z,3.51
2022-11-29T07:47:36.062Z,3.52
2022-11-29T07:50:05.318Z,3.53
2022-11-29T07:52:33.599Z,3.52
2022-11-29T07:55:02.365Z,3.47
2022-11-29T07:57:30.400Z,3.48
2022-11-29T07:59:58.571Z,3.51
2022-11-29T08:02:31.155Z,3.51
2022-11-29T08:04:59.539Z,3.48
2022-11-29T08:07:28.647Z,3.44
2022-11-29T08:09:56.695Z,3.45
2022-11-29T08:12:24.689Z,3.52
2022-11-29T08:14:52.617Z,3.55
2022-11-29T08:17:20.837Z,3.58
2022-11-29T08:19:49.328Z,3.62
2022-11-29T08:22:17.448Z,3.63
2022-11-29T08:24:45.532Z,3.67
2022-11-29T08:27:13.741Z,3.75
2022-11-29T08:29:41.865Z,3.79
2022-11-29T08:32:09.835Z,3.80
2022-11-29T08:34:38.313Z,3.82
2022-11-29T08:37:06.411Z,3.86
2022-11-29T08:39:34.483Z,3.84
2022-11-29T08:42:02.514Z,3.87
2022-11-29T08:44:30.486Z,3.93
2022-11-29T08:47:16.994Z,3.96
2022-11-29T08:50:03.343Z,3.98
2022-11-29T08:52:54.192Z,4.01
2022-11-29T08:55:25.034Z,4.05
2022-11-29T08:57:55.079Z,4.10
2022-11-29T09:00:23.193Z,4.16
2022-11-29T09:02:51.491Z,4.20
2022-11-29T09:05:20.276Z,4.24
2022-11-29T09:07:48.179Z,4.37
2022-11-29T09:10:16.642Z,4.67
2022-11-29T09:12:45.195Z,4.70
2022-11-29T09:15:13.321Z,4.72
2022-11-29T09:17:41.208Z,4.73
2022-11-29T09:20:09.393Z,4.74
2022-11-29T09:22:37.356Z,4.75
2022-11-29T09:25:05.810Z,4.75
2022-11-29T09:27:33.695Z,4.77
2022-11-29T09:30:01.846Z,4.82
2022-11-29T09:32:31.306Z,4.84
2022-11-29T09:34:59.453Z,4.86
2022-11-29T09:37:27.664Z,4.92
2022-11-29T09:39:55.650Z,4.96
2022-11-29T09:43:15.301Z,5.05
2022-11-29T09:45:47.386Z,5.12
2022-11-29T09:48:36.993Z,5.17
2022-11-29T09:51:13.700Z,5.22
2022-11-29T09:54:00.282Z,5.25
2022-11-29T09:56:42.655Z,5.27
2022-11-29T09:59:37.432Z,5.29
2022-11-29T10:02:21.987Z,5.31
2022-11-29T10:04:58.175Z,5.34
2022-11-29T10:07:46.220Z,5.36
2022-11-29T10:10:24.346Z,5.41
2022-11-29T10:12:59.836Z,5.43
2022-11-29T10:15:32.204Z,5.43
2022-11-29T10:18:22.701Z,5.42
2022-11-29T10:20:54.195Z,5.39
2022-11-29T10:23:34.865Z,5.37
2022-11-29T10:26:08.177Z,5.37
2022-11-29T10:28:37.796Z,5.39
2022-11-29T10:31:29.363Z,5.37
2022-11-29T10:34:01.079Z,5.37
2022-11-29T10:36:36.727Z,5.41
2022-11-29T10:39:19.995Z,5.44
2022-11-29T10:41:55.917Z,5.43
2022-11-29T10:44:24.630Z,5.40
2022-11-29T10:46:53.511Z,5.37
2022-11-29T10:49:27.080Z,5.35
2022-11-29T10:51:55.166Z,5.36
2022-11-29T10:54:38.944Z,5.37
2022-11-29T10:57:19.140Z,5.37
2022-11-29T11:00:07.360Z,5.37
2022-11-29T11:02:36.823Z,5.36
2022-11-29T11:05:13.369Z,5.35
2022-11-29T11:07:41.959Z,5.32
2022-11-29T11:10:29.069Z,5.31
2022-11-29T11:13:20.943Z,5.35
2022-11-29T11:15:49.005Z,5.30
2022-11-29T11:18:23.100Z,5.24
2022-11-29T11:20:58.765Z,5.22
2022-11-29T11:23:30.604Z,5.24
2022-11-29T11:26:05.319Z,5.28
2022-11-29T11:28:43.869Z,5.34
2022-11-29T11:31:13.131Z,5.36
2022-11-29T11:33:46.149Z,5.41
2022-11-29T11:36:22.581Z,5.45
2022-11-29T11:38:56.191Z,5.51
2022-11-29T11:41:57.237Z,5.80
2022-11-29T11:44:51.725Z,5.81
2022-11-29T11:47:24.568Z,5.68
2022-11-29T11:50:04.509Z,5.56
2022-11-29T11:52:53.367Z,5.49
2022-11-29T11:55:21.287Z,5.47
2022-11-29T11:58:03.387Z,5.46
2022-11-29T12:01:07.862Z,5.46
2022-11-29T12:03:41.870Z,5.42
2022-11-29T12:06:25.826Z,5.42
2022-11-29T12:09:19.603Z,5.47
2022-11-29T12:11:54.564Z,5.48
2022-11-29T12:14:30.283Z,5.44
2022-11-29T12:17:09.914Z,5.42
2022-11-29T12:19:49.600Z,5.43
2022-11-29T12:22:24.912Z,5.46
2022-11-29T12:25:02.307Z,5.51
2022-11-29T12:27:31.432Z,5.53
2022-11-29T12:29:59.280Z,5.55
2022-11-29T12:32:30.127Z,5.53
2022-11-29T12:35:22.608Z,5.55
2022-11-29T12:38:05.917Z,5.50
2022-11-29T12:40:49.401Z,5.42
2022-11-29T12:43:23.612Z,5.38
2022-11-29T12:46:16.055Z,5.38
2022-11-29T12:48:57.464Z,5.35
2022-11-29T12:51:25.623Z,5.39
2022-11-29T12:54:20.618Z,5.45
2022-11-29T12:56:55.877Z,5.43
2022-11-29T13:00:06.264Z,5.40
2022-11-29T13:02:44.032Z,5.43
2022-11-29T13:05:24.985Z,5.46
2022-11-29T13:08:11.385Z,5.46
2022-11-29T13:10:39.482Z,5.47
2022-11-29T13:13:44.427Z,5.49
2022-11-29T13:19:18.842Z,5.74
2022-11-29T13:21:58.093Z,5.75
2022-11-29T13:24:38.354Z,5.73
2022-11-29T13:27:18.881Z,5.68
2022-11-29T13:29:47.848Z,5.57
2022-11-29T13:32:26.248Z,5.45
2022-11-29T13:34:59.743Z,5.31
2022-11-29T13:37:40.522Z,5.19
2022-11-29T13:40:25.864Z,5.05
2022-11-29T13:42:58.601Z,4.88
2022-11-29T13:45:44.741Z,4.71
2022-11-29T13:48:32.424Z,4.56
2022-11-29T13:51:23.665Z,4.42
2022-11-29T13:53:53.402Z,4.27
2022-11-29T13:56:29.823Z,4.17
2022-11-29T13:58:59.148Z,4.09
2022-11-29T14:01:28.621Z,4.03
2022-11-29T14:04:04.888Z,3.98
2022-11-29T14:06:38.370Z,3.91
2022-11-29T14:09:31.881Z,3.84
2022-11-29T14:12:37.292Z,3.78
2022-11-29T14:15:11.336Z,3.76
2022-11-29T14:17:51.542Z,3.76
2022-11-29T14:20:22.508Z,3.75
2022-11-29T14:23:05.829Z,3.75
2022-11-29T14:26:01.004Z,3.71
2022-11-29T14:28:34.596Z,3.66
2022-11-29T14:31:05.086Z,3.66
2022-11-29T14:33:52.153Z,3.64
2022-11-29T14:36:48.097Z,3.65
2022-11-29T14:39:41.168Z,3.68
2022-11-29T14:42:21.386Z,3.77
2022-11-29T14:44:54.470Z,3.82
2022-11-29T14:47:32.102Z,3.90
2022-11-29T14:50:04.386Z,3.99
2022-11-29T14:52:38.755Z,3.99
2022-11-29T14:55:09.389Z,4.01
2022-11-29T14:58:03.819Z,3.99
2022-11-29T15:00:47.341Z,3.95
2022-11-29T15:03:32.044Z,3.94
2022-11-29T15:06:06.139Z,3.94
2022-11-29T15:09:01.881Z,3.95
2022-11-29T15:11:52.874Z,4.01
2022-11-29T15:14:20.918Z,4.07
2022-11-29T15:17:31.441Z,4.10
2022-11-29T15:20:25.415Z,4.12
2022-11-29T15:22:57.991Z,4.15
2022-11-29T15:25:30.940Z,4.14
2022-11-29T15:28:04.854Z,4.13
2022-11-29T15:30:35.993Z,4.14
2022-11-29T15:33:19.068Z,4.16
2022-11-29T15:35:57.016Z,4.18
2022-11-29T15:38:25.232Z,4.17
2022-11-29T15:40:55.344Z,4.13
2022-11-29T15:43:30.466Z,4.09
2022-11-29T15:45:59.411Z,4.06
2022-11-29T15:48:29.999Z,4.03
2022-11-29T15:50:57.871Z,4.00
2022-11-29T15:53:38.542Z,3.98
2022-11-29T15:56:18.487Z,3.95
2022-11-29T15:58:48.938Z,3.91
2022-11-29T16:01:21.907Z,3.88
2022-11-29T16:03:53.695Z,3.88
2022-11-29T16:06:38.091Z,3.86
2022-11-29T16:09:11.068Z,3.83
2022-11-29T16:11:39.923Z,3.80
2022-11-29T16:14:11.008Z,3.79
2022-11-29T16:16:41.034Z,3.77
2022-11-29T16:19:22.937Z,3.74
2022-11-29T16:22:12.616Z,3.72
2022-11-29T16:25:05.703Z,3.69
2022-11-29T16:27:35.645Z,3.69
2022-11-29T16:30:05.511Z,3.70
2022-11-29T16:32:42.681Z,3.70
2022-11-29T16:35:20.880Z,3.66
2022-11-29T16:37:49.243Z,3.60
2022-11-29T16:40:25.816Z,3.60
2022-11-29T16:43:03.023Z,3.56
2022-11-29T16:45:38.727Z,3.54
2022-11-29T16:48:22.018Z,3.56
2022-11-29T16:51:15.056Z,3.58
2022-11-29T16:53:48.367Z,3.58
2022-11-29T16:56:19.318Z,3.58
2022-11-29T16:59:20.491Z,3.57
2022-11-29T17:01:40.516Z,3.54
2022-11-29T17:04:09.390Z,3.53
2022-11-29T17:06:38.334Z,3.50
2022-11-29T17:09:06.268Z,3.46
2022-11-29T17:11:34.178Z,3.44
2022-11-29T17:14:02.618Z,3.40
2022-11-29T17:16:30.558Z,3.40
2022-11-29T17:18:58.686Z,3.50
2022-11-29T17:21:28.230Z,3.61
2022-11-29T17:23:56.195Z,4.33
2022-11-29T17:26:24.835Z,4.50
2022-11-29T17:28:53.239Z,4.37
2022-11-29T17:31:24.152Z,4.33
2022-11-29T17:33:52.553Z,4.28
2022-11-29T17:36:21.498Z,4.11
2022-11-29T17:38:49.581Z,3.96
2022-11-29T17:41:25.358Z,3.82
2022-11-29T17:43:55.561Z,3.74
2022-11-29T17:46:28.769Z,3.63
2022-11-29T17:48:59.616Z,3.58
2022-11-29T17:51:51.164Z,3.56
2022-11-29T17:54:16.713Z,3.56
2022-11-29T17:56:44.662Z,3.54
2022-11-29T17:59:12.651Z,3.51
2022-11-29T18:01:40.623Z,3.47
2022-11-29T18:04:08.616Z,3.43
2022-11-29T18:06:39.603Z,3.38
2022-11-29T18:09:10.880Z,3.32
2022-11-29T18:11:48.655Z,3.29
2022-11-29T18:14:24.161Z,3.23
2022-11-29T18:16:52.506Z,3.20
2022-11-29T18:19:22.540Z,3.13
2022-11-29T18:21:51.324Z,3.06
2022-11-29T18:24:19.767Z,2.98
2022-11-29T18:26:47.941Z,2.90
2022-11-29T18:29:16.290Z,2.78
2022-11-29T18:31:46.665Z,2.67
2022-11-29T18:34:15.794Z,2.59
2022-11-29T18:36:46.887Z,2.56
2022-11-29T18:39:17.716Z,2.56
2022-11-29T18:41:48.607Z,2.56
2022-11-29T18:44:19.832Z,2.54
2022-11-29T18:46:48.047Z,2.51
2022-11-29T18:49:18.105Z,2.66
2022-11-29T18:51:47.799Z,2.79
2022-11-29T18:54:18.302Z,2.84
2022-11-29T18:56:47.090Z,2.74
2022-11-29T18:59:17.317Z,2.61
2022-11-29T19:01:48.457Z,2.51
2022-11-29T19:04:19.921Z,2.43
2022-11-29T19:06:48.472Z,2.40
2022-11-29T19:09:21.173Z,2.37
2022-11-29T19:11:50.458Z,2.37
2022-11-29T19:14:19.218Z,2.38
2022-11-29T19:16:50.045Z,2.35
2022-11-29T19:19:19.321Z,2.32
2022-11-29T19:21:47.756Z,2.30
2022-11-29T19:24:18.191Z,2.27
2022-11-29T19:26:50.064Z,2.28
2022-11-29T19:29:18.021Z,2.32
2022-11-29T19:31:45.999Z,2.35
2022-11-29T19:34:14.517Z,2.39
2022-11-29T19:36:43.897Z,2.42
2022-11-29T19:39:14.814Z,2.44
2022-11-29T19:41:48.001Z,2.46
2022-11-29T19:44:16.231Z,2.47
2022-11-29T19:46:48.872Z,2.50
2022-11-29T19:49:17.471Z,2.49
2022-11-29T19:51:49.876Z,2.50
2022-11-29T19:54:19.227Z,2.52
2022-11-29T19:56:56.003Z,2.54
2022-11-29T19:59:38.773Z,2.54
2022-11-29T20:02:07.146Z,2.54
2022-11-29T20:04:41.213Z,2.52
2022-11-29T20:07:09.231Z,2.51
2022-11-29T20:09:37.720Z,2.50
2022-11-29T20:12:06.133Z,2.47
2022-11-29T20:14:40.592Z,2.45
2022-11-29T20:17:27.598Z,2.41
2022-11-29T20:19:59.277Z,2.37
2022-11-29T20:22:27.247Z,2.35
2022-11-29T20:24:55.326Z,2.38
2022-11-29T20:27:23.855Z,2.41
2022-11-29T20:29:51.867Z,2.43
2022-11-29T20:32:19.852Z,2.44
2022-11-29T20:34:48.312Z,2.44
2022-11-29T20:37:55.056Z,2.44
2022-11-29T20:40:30.152Z,2.45
2022-11-29T20:43:06.523Z,2.43
2022-11-29T20:45:34.702Z,2.42
2022-11-29T20:48:21.781Z,2.40
2022-11-29T20:51:01.571Z,2.39
2022-11-29T20:53:41.773Z,2.39
2022-11-29T20:56:11.362Z,2.42
2022-11-29T20:58:39.914Z,2.44
2022-11-29T21:01:08.185Z,2.46
2022-11-29T21:03:36.913Z,2.46
2022-11-29T21:06:06.405Z,2.44
2022-11-29T21:08:34.739Z,2.44
2022-11-29T21:11:05.592Z,2.43
2022-11-29T21:13:34.556Z,2.41
2022-11-29T21:16:03.382Z,2.45
2022-11-29T21:18:32.832Z,2.50
2022-11-29T21:21:25.148Z,2.50
2022-11-29T21:24:03.357Z,2.50
2022-11-29T21:26:46.864Z,2.47
2022-11-29T21:29:18.508Z,2.40
2022-11-29T21:31:49.652Z,2.33
2022-11-29T21:34:18.150Z,2.27
2022-11-29T21:36:50.576Z,2.25
2022-11-29T21:39:18.522Z,2.27
2022-11-29T21:41:48.466Z,2.28
2022-11-29T21:44:16.689Z,2.32
2022-11-29T21:46:44.721Z,2.34
2022-11-29T21:49:12.992Z,2.39
2022-11-29T21:51:41.083Z,2.43
2022-11-29T21:54:08.944Z,2.46
2022-11-29T21:56:36.896Z,2.49
2022-11-29T21:59:05.794Z,2.50
2022-11-29T22:01:34.017Z,2.49
2022-11-29T22:04:02.478Z,2.48
2022-11-29T22:06:30.416Z,2.45
2022-11-29T22:08:59.959Z,2.40
2022-11-29T22:11:36.957Z,2.34
2022-11-29T22:14:15.182Z,2.30
2022-11-29T22:16:54.384Z,2.27
2022-11-29T22:19:28.397Z,2.26
2022-11-29T22:22:05.659Z,2.26
2022-11-29T22:24:35.660Z,2.21
2022-11-29T22:27:04.470Z,2.12
2022-11-29T22:29:32.821Z,2.09
2022-11-29T22:32:01.303Z,2.07
2022-11-29T22:34:29.283Z,2.05
2022-11-29T22:36:58.038Z,2.02
2022-11-29T22:39:26.026Z,1.98
2022-11-29T22:41:55.250Z,1.94
2022-11-29T22:44:24.081Z,1.89
2022-11-29T22:46:52.526Z,1.87
2022-11-29T22:49:20.857Z,1.88
2022-11-29T22:51:49.115Z,1.86
2022-11-29T22:54:17.712Z,1.86
2022-11-29T22:56:46.141Z,1.86
2022-11-29T22:59:14.313Z,1.87
2022-11-29T23:01:42.868Z,1.91
2022-11-29T23:04:12.360Z,1.95
2022-11-29T23:06:45.430Z,1.97
2022-11-29T23:09:16.728Z,1.99
2022-11-29T23:11:46.202Z,2.02
2022-11-29T23:14:14.093Z,2.03
2022-11-29T23:16:42.951Z,2.03
2022-11-29T23:19:11.223Z,2.02
2022-11-29T23:21:41.232Z,1.99
2022-11-29T23:24:09.411Z,1.97
2022-11-29T23:26:40.308Z,1.92
2022-11-29T23:29:11.938Z,1.86
2022-11-29T23:31:40.565Z,1.82
2022-11-29T23:34:08.832Z,1.77
2022-11-29T23:36:36.869Z,1.74
2022-11-29T23:39:06.733Z,1.74
2022-11-29T23:41:36.358Z,1.73
2022-11-29T23:44:05.913Z,1.71
2022-11-29T23:46:35.475Z,1.70
2022-11-29T23:49:03.592Z,1.66
2022-11-29T23:51:31.559Z,1.62
2022-11-29T23:53:59.850Z,1.63
2022-11-29T23:56:28.186Z,1.65
2022-11-29T23:58:56.315Z,1.68
